Flugplatz Augsburg (EDMA)

Hier findest Du alle Informationen zum Flugplatz Augsburg (EDMA).

Informationen für Piloten zum Flugplatz Augsburg

Hier findest Du alle relevanten Informationen, die Du als Pilot benötigst, um Augsburg anzufliegen.

Flugplatz: Augsburg ICAO-Code: EDMA
Frequenz Turm: 124,975 Mhz GAFOR Gebiet: 72
Frequenz Ground: 124,975 Mhz Mogas: nein
Platzrunde: - Landegebühr: -
Platzhöhe: - Sunrise: 06:58 Uhr UTC
Pisten: 07/25 - 1.280 m x 30 m, ASPH Sunset: 15:54 Uhr UTC

Flugwetter am Flugplatz Augsburg

Die METAR Information stammen aus EDMA.

METAR Code:
2022/01/10 16:50
EDMA 101650Z 35005KT 9999 OVC016 02/M00 Q1023

Temperatur: 2,0 °C Niederschlag: - Wind: -
Temperatur (min.): 0,0 °C Luftdruck: 1035 hPa Windrichtung: -
Temperatur (max.): 3,1 °C Luftfeuchtigkeit: 93 % Bewölkung: 8/8

Flugschulen am Flugplatz Augsburg

Am Flugplatz Augsburg gibt es 2 Flugschulen.

Benachbarte Flugplätze und Flugschulen

Es gibt 16 weitere Flugplätze in einem Umkreis von 50 km um den Flugplatz Augsburg.

Jetzt anmelden

Passwort vergessen

Umfrage Archiv

Welche Navigations-App nutzt Ihr im Cockpit

SkyDemon
50.6 %
VFRnav
19.4 %
Ich nutze eine andere App
17.8 %
EasyVFR
5.3 %
Ich nutze gar keine App
5.3 %
ForeFlight
1.6 %
Stimmen: 247 | Diskussion (45)
Anzeige: Roland Aircraft
Statistik Alle Mitglieder

Aktuell sind 51 Besucher online.

Anzeige: Pocket FMS